sensor_id;sensor_type;location;lat;lon;timestamp;pressure;altitude;pressure_sealevel;temperature;humidity
8653;BME280;4364;52.426;9.424;2023-05-25T00:00:09;102024.84;;;8.29;99.23
8653;BME280;4364;52.426;9.424;2023-05-25T00:02:36;102029.50;;;8.22;100.00
8653;BME280;4364;52.426;9.424;2023-05-25T00:05:06;102026.78;;;8.22;100.00
8653;BME280;4364;52.426;9.424;2023-05-25T00:07:33;102023.16;;;8.28;100.00
8653;BME280;4364;52.426;9.424;2023-05-25T00:10:00;102018.19;;;8.25;99.77
8653;BME280;4364;52.426;9.424;2023-05-25T00:12:26;102026.06;;;8.14;100.00
8653;BME280;4364;52.426;9.424;2023-05-25T00:14:53;102011.69;;;8.14;100.00
8653;BME280;4364;52.426;9.424;2023-05-25T00:17:19;102028.84;;;8.08;99.81
8653;BME280;4364;52.426;9.424;2023-05-25T00:19:47;102021.38;;;8.03;100.00
8653;BME280;4364;52.426;9.424;2023-05-25T00:22:14;102027.03;;;8.02;100.00
8653;BME280;4364;52.426;9.424;2023-05-25T00:24:41;102020.56;;;8.03;100.00
8653;BME280;4364;52.426;9.424;2023-05-25T00:27:07;102024.53;;;8.00;100.00
8653;BME280;4364;52.426;9.424;2023-05-25T00:29:34;102015.16;;;8.03;100.00
8653;BME280;4364;52.426;9.424;2023-05-25T00:32:01;102020.81;;;8.01;100.00
8653;BME280;4364;52.426;9.424;2023-05-25T00:34:28;102022.00;;;8.05;100.00
8653;BME280;4364;52.426;9.424;2023-05-25T00:36:54;102021.75;;;8.07;100.00
8653;BME280;4364;52.426;9.424;2023-05-25T00:39:21;102020.50;;;8.09;100.00
8653;BME280;4364;52.426;9.424;2023-05-25T00:41:48;102023.78;;;8.11;100.00
8653;BME280;4364;52.426;9.424;2023-05-25T00:44:15;102017.56;;;8.11;100.00
8653;BME280;4364;52.426;9.424;2023-05-25T00:46:48;102018.00;;;8.08;100.00
8653;BME280;4364;52.426;9.424;2023-05-25T00:49:17;102017.63;;;8.04;100.00
8653;BME280;4364;52.426;9.424;2023-05-25T00:51:44;102011.78;;;8.07;100.00
8653;BME280;4364;52.426;9.424;2023-05-25T00:54:16;102018.16;;;8.13;100.00
8653;BME280;4364;52.426;9.424;2023-05-25T00:56:45;102011.31;;;8.10;100.00
8653;BME280;4364;52.426;9.424;2023-05-25T00:59:16;102008.91;;;8.02;100.00
8653;BME280;4364;52.426;9.424;2023-05-25T01:01:46;102006.44;;;8.01;100.00
8653;BME280;4364;52.426;9.424;2023-05-25T01:04:14;102010.13;;;7.88;100.00
8653;BME280;4364;52.426;9.424;2023-05-25T01:06:47;102011.50;;;7.78;100.00
8653;BME280;4364;52.426;9.424;2023-05-25T01:09:16;102013.00;;;7.74;100.00
8653;BME280;4364;52.426;9.424;2023-05-25T01:11:48;102006.91;;;7.79;100.00
8653;BME280;4364;52.426;9.424;2023-05-25T01:14:19;102003.13;;;7.80;100.00
8653;BME280;4364;52.426;9.424;2023-05-25T01:16:50;101998.25;;;7.89;100.00
8653;BME280;4364;52.426;9.424;2023-05-25T01:19:17;102003.44;;;7.90;100.00
8653;BME280;4364;52.426;9.424;2023-05-25T01:21:55;102002.16;;;7.93;100.00
8653;BME280;4364;52.426;9.424;2023-05-25T01:29:57;102014.56;;;7.82;100.00
8653;BME280;4364;52.426;9.424;2023-05-25T01:32:25;102015.41;;;7.64;100.00
8653;BME280;4364;52.426;9.424;2023-05-25T01:34:54;102011.47;;;7.60;100.00
8653;BME280;4364;52.426;9.424;2023-05-25T01:37:21;102025.06;;;7.53;100.00
8653;BME280;4364;52.426;9.424;2023-05-25T01:39:49;102022.75;;;7.38;100.00
8653;BME280;4364;52.426;9.424;2023-05-25T01:42:16;102009.09;;;7.27;100.00
8653;BME280;4364;52.426;9.424;2023-05-25T01:44:43;102010.59;;;7.22;100.00
8653;BME280;4364;52.426;9.424;2023-05-25T01:47:21;102015.63;;;7.19;100.00
8653;BME280;4364;52.426;9.424;2023-05-25T01:50:06;102017.13;;;7.15;100.00
8653;BME280;4364;52.426;9.424;2023-05-25T01:52:44;102007.56;;;7.12;100.00
8653;BME280;4364;52.426;9.424;2023-05-25T01:55:17;102013.03;;;7.05;100.00
8653;BME280;4364;52.426;9.424;2023-05-25T01:57:49;102013.09;;;6.99;100.00
8653;BME280;4364;52.426;9.424;2023-05-25T02:00:17;102013.53;;;6.96;100.00
8653;BME280;4364;52.426;9.424;2023-05-25T02:02:46;102015.16;;;7.03;100.00
8653;BME280;4364;52.426;9.424;2023-05-25T02:05:13;102011.66;;;6.96;100.00
8653;BME280;4364;52.426;9.424;2023-05-25T02:07:40;102017.00;;;7.03;100.00
8653;BME280;4364;52.426;9.424;2023-05-25T02:10:06;102017.38;;;7.07;100.00
8653;BME280;4364;52.426;9.424;2023-05-25T02:12:33;102021.16;;;7.05;100.00
8653;BME280;4364;52.426;9.424;2023-05-25T02:15:00;102026.56;;;7.05;100.00
8653;BME280;4364;52.426;9.424;2023-05-25T02:17:26;102014.94;;;7.05;100.00
8653;BME280;4364;52.426;9.424;2023-05-25T02:19:55;102013.28;;;7.04;100.00
8653;BME280;4364;52.426;9.424;2023-05-25T02:22:22;102002.59;;;7.09;100.00
8653;BME280;4364;52.426;9.424;2023-05-25T02:24:49;102013.22;;;7.11;100.00
8653;BME280;4364;52.426;9.424;2023-05-25T02:27:15;102010.88;;;7.14;100.00
8653;BME280;4364;52.426;9.424;2023-05-25T02:29:42;102013.38;;;7.16;100.00
8653;BME280;4364;52.426;9.424;2023-05-25T02:32:08;102012.94;;;7.19;100.00
8653;BME280;4364;52.426;9.424;2023-05-25T02:34:36;102011.88;;;7.20;100.00
8653;BME280;4364;52.426;9.424;2023-05-25T02:37:02;102011.03;;;7.19;100.00
8653;BME280;4364;52.426;9.424;2023-05-25T02:39:29;102010.66;;;7.16;100.00
8653;BME280;4364;52.426;9.424;2023-05-25T02:41:57;102009.22;;;7.13;100.00
8653;BME280;4364;52.426;9.424;2023-05-25T02:44:25;102015.84;;;7.17;100.00
8653;BME280;4364;52.426;9.424;2023-05-25T02:46:51;102015.63;;;7.19;100.00
8653;BME280;4364;52.426;9.424;2023-05-25T02:49:18;102020.59;;;7.22;100.00
8653;BME280;4364;52.426;9.424;2023-05-25T02:51:46;102023.53;;;7.20;100.00
8653;BME280;4364;52.426;9.424;2023-05-25T02:54:13;102023.16;;;7.17;100.00
8653;BME280;4364;52.426;9.424;2023-05-25T02:56:39;102025.59;;;7.25;100.00
8653;BME280;4364;52.426;9.424;2023-05-25T02:59:09;102020.22;;;7.18;100.00
8653;BME280;4364;52.426;9.424;2023-05-25T03:01:36;102017.53;;;7.18;100.00
8653;BME280;4364;52.426;9.424;2023-05-25T03:04:02;102027.06;;;7.21;100.00
8653;BME280;4364;52.426;9.424;2023-05-25T03:06:35;102026.69;;;7.17;100.00
8653;BME280;4364;52.426;9.424;2023-05-25T03:09:15;102031.66;;;7.20;100.00
8653;BME280;4364;52.426;9.424;2023-05-25T03:11:44;102033.75;;;7.18;100.00
8653;BME280;4364;52.426;9.424;2023-05-25T03:14:14;102032.03;;;7.24;100.00
8653;BME280;4364;52.426;9.424;2023-05-25T03:16:46;102036.16;;;7.27;100.00
8653;BME280;4364;52.426;9.424;2023-05-25T03:19:13;102030.94;;;7.32;100.00
8653;BME280;4364;52.426;9.424;2023-05-25T03:21:39;102037.91;;;7.39;100.00
8653;BME280;4364;52.426;9.424;2023-05-25T03:24:06;102038.53;;;7.41;100.00
8653;BME280;4364;52.426;9.424;2023-05-25T03:26:33;102043.34;;;7.39;100.00
8653;BME280;4364;52.426;9.424;2023-05-25T03:29:01;102037.47;;;7.42;100.00
8653;BME280;4364;52.426;9.424;2023-05-25T03:31:28;102044.41;;;7.38;100.00
8653;BME280;4364;52.426;9.424;2023-05-25T03:33:54;102043.09;;;7.41;100.00
8653;BME280;4364;52.426;9.424;2023-05-25T03:36:22;102042.22;;;7.47;100.00
8653;BME280;4364;52.426;9.424;2023-05-25T03:38:53;102042.44;;;7.46;100.00
8653;BME280;4364;52.426;9.424;2023-05-25T03:41:20;102038.59;;;7.53;100.00
8653;BME280;4364;52.426;9.424;2023-05-25T03:43:48;102048.53;;;7.59;100.00
8653;BME280;4364;52.426;9.424;2023-05-25T03:46:14;102039.91;;;7.69;100.00
8653;BME280;4364;52.426;9.424;2023-05-25T03:48:42;102052.78;;;7.74;100.00
8653;BME280;4364;52.426;9.424;2023-05-25T03:51:08;102059.25;;;7.73;100.00
8653;BME280;4364;52.426;9.424;2023-05-25T03:53:35;102054.91;;;7.72;100.00
8653;BME280;4364;52.426;9.424;2023-05-25T03:56:01;102050.31;;;7.72;100.00
8653;BME280;4364;52.426;9.424;2023-05-25T03:58:28;102053.75;;;7.79;100.00
8653;BME280;4364;52.426;9.424;2023-05-25T04:00:54;102060.00;;;7.80;100.00
8653;BME280;4364;52.426;9.424;2023-05-25T04:03:21;102061.59;;;7.88;100.00
8653;BME280;4364;52.426;9.424;2023-05-25T04:05:48;102060.31;;;7.90;100.00
8653;BME280;4364;52.426;9.424;2023-05-25T04:08:15;102066.09;;;7.94;100.00
8653;BME280;4364;52.426;9.424;2023-05-25T04:10:45;102063.53;;;7.99;100.00
8653;BME280;4364;52.426;9.424;2023-05-25T04:13:12;102070.16;;;8.03;100.00
8653;BME280;4364;52.426;9.424;2023-05-25T04:15:39;102074.91;;;8.08;100.00
8653;BME280;4364;52.426;9.424;2023-05-25T04:18:14;102071.75;;;8.11;100.00
8653;BME280;4364;52.426;9.424;2023-05-25T04:20:40;102076.03;;;8.19;100.00
8653;BME280;4364;52.426;9.424;2023-05-25T04:23:10;102076.41;;;8.22;100.00
8653;BME280;4364;52.426;9.424;2023-05-25T04:25:38;102072.75;;;8.28;100.00
8653;BME280;4364;52.426;9.424;2023-05-25T04:28:04;102077.50;;;8.33;100.00
8653;BME280;4364;52.426;9.424;2023-05-25T04:30:44;102076.78;;;8.44;100.00
8653;BME280;4364;52.426;9.424;2023-05-25T04:33:24;102068.91;;;8.55;100.00
8653;BME280;4364;52.426;9.424;2023-05-25T04:36:11;102082.28;;;8.68;100.00
8653;BME280;4364;52.426;9.424;2023-05-25T04:38:40;102082.56;;;8.78;100.00
8653;BME280;4364;52.426;9.424;2023-05-25T04:41:08;102083.31;;;8.85;100.00
8653;BME280;4364;52.426;9.424;2023-05-25T04:43:37;102084.25;;;8.91;100.00
8653;BME280;4364;52.426;9.424;2023-05-25T04:46:18;102083.56;;;8.96;100.00
8653;BME280;4364;52.426;9.424;2023-05-25T04:48:44;102084.28;;;9.03;100.00
8653;BME280;4364;52.426;9.424;2023-05-25T04:51:11;102093.13;;;9.10;100.00
8653;BME280;4364;52.426;9.424;2023-05-25T04:53:38;102097.25;;;9.01;100.00
8653;BME280;4364;52.426;9.424;2023-05-25T04:56:05;102100.78;;;9.01;99.91
8653;BME280;4364;52.426;9.424;2023-05-25T04:58:32;102096.38;;;8.88;99.20
8653;BME280;4364;52.426;9.424;2023-05-25T05:00:59;102097.09;;;8.84;98.86
8653;BME280;4364;52.426;9.424;2023-05-25T05:03:26;102098.50;;;8.86;98.67
8653;BME280;4364;52.426;9.424;2023-05-25T05:05:53;102106.69;;;8.98;98.39
8653;BME280;4364;52.426;9.424;2023-05-25T05:08:24;102094.31;;;9.02;98.58
8653;BME280;4364;52.426;9.424;2023-05-25T05:10:50;102102.38;;;9.21;98.00
8653;BME280;4364;52.426;9.424;2023-05-25T05:13:17;102102.50;;;9.26;97.08
8653;BME280;4364;52.426;9.424;2023-05-25T05:15:43;102114.16;;;9.15;97.40
8653;BME280;4364;52.426;9.424;2023-05-25T05:18:10;102111.22;;;9.16;96.94
8653;BME280;4364;52.426;9.424;2023-05-25T05:20:38;102111.66;;;9.13;96.66
8653;BME280;4364;52.426;9.424;2023-05-25T05:23:04;102112.16;;;9.22;96.86
8653;BME280;4364;52.426;9.424;2023-05-25T05:25:32;102116.75;;;9.21;96.56
8653;BME280;4364;52.426;9.424;2023-05-25T05:27:59;102121.72;;;9.24;96.24
8653;BME280;4364;52.426;9.424;2023-05-25T05:30:32;102121.03;;;9.29;95.29
8653;BME280;4364;52.426;9.424;2023-05-25T05:32:59;102124.56;;;9.18;95.46
8653;BME280;4364;52.426;9.424;2023-05-25T05:35:32;102131.13;;;9.10;96.50
8653;BME280;4364;52.426;9.424;2023-05-25T05:38:05;102140.03;;;9.17;96.86
8653;BME280;4364;52.426;9.424;2023-05-25T05:40:32;102141.78;;;9.23;97.18
8653;BME280;4364;52.426;9.424;2023-05-25T05:43:00;102147.09;;;9.30;97.28
8653;BME280;4364;52.426;9.424;2023-05-25T05:45:27;102147.72;;;9.32;97.03
8653;BME280;4364;52.426;9.424;2023-05-25T05:47:54;102148.53;;;9.33;97.28
8653;BME280;4364;52.426;9.424;2023-05-25T05:50:21;102161.41;;;9.37;97.03
8653;BME280;4364;52.426;9.424;2023-05-25T05:52:47;102162.59;;;9.41;97.21
8653;BME280;4364;52.426;9.424;2023-05-25T05:55:14;102169.47;;;9.44;96.12
8653;BME280;4364;52.426;9.424;2023-05-25T05:57:41;102158.69;;;9.25;97.21
8653;BME280;4364;52.426;9.424;2023-05-25T06:00:08;102167.31;;;9.34;96.96
8653;BME280;4364;52.426;9.424;2023-05-25T06:02:41;102164.97;;;9.38;97.04
8653;BME280;4364;52.426;9.424;2023-05-25T06:05:11;102162.13;;;9.44;96.71
8653;BME280;4364;52.426;9.424;2023-05-25T06:07:40;102167.59;;;9.56;96.61
8653;BME280;4364;52.426;9.424;2023-05-25T06:10:07;102167.34;;;9.46;96.36
8653;BME280;4364;52.426;9.424;2023-05-25T06:12:34;102170.88;;;9.58;96.44
8653;BME280;4364;52.426;9.424;2023-05-25T06:15:01;102167.59;;;9.68;95.81
8653;BME280;4364;52.426;9.424;2023-05-25T06:17:28;102172.91;;;9.75;94.77
8653;BME280;4364;52.426;9.424;2023-05-25T06:19:55;102165.22;;;9.60;94.91
8653;BME280;4364;52.426;9.424;2023-05-25T06:22:22;102168.78;;;9.72;95.26
8653;BME280;4364;52.426;9.424;2023-05-25T06:24:51;102168.91;;;9.89;94.66
8653;BME280;4364;52.426;9.424;2023-05-25T06:27:17;102172.22;;;10.03;93.91
8653;BME280;4364;52.426;9.424;2023-05-25T06:29:44;102161.44;;;10.08;93.65
8653;BME280;4364;52.426;9.424;2023-05-25T06:32:10;102168.06;;;10.12;93.28
8653;BME280;4364;52.426;9.424;2023-05-25T06:34:37;102165.94;;;10.38;92.00
8653;BME280;4364;52.426;9.424;2023-05-25T06:37:04;102170.56;;;10.37;91.60
8653;BME280;4364;52.426;9.424;2023-05-25T06:39:30;102173.25;;;10.49;91.46
8653;BME280;4364;52.426;9.424;2023-05-25T06:41:58;102177.47;;;10.57;91.56
8653;BME280;4364;52.426;9.424;2023-05-25T06:44:31;102186.50;;;10.46;90.08
8653;BME280;4364;52.426;9.424;2023-05-25T06:47:00;102178.72;;;10.37;91.09
8653;BME280;4364;52.426;9.424;2023-05-25T06:49:29;102181.78;;;10.41;91.02
8653;BME280;4364;52.426;9.424;2023-05-25T06:51:55;102187.56;;;10.45;90.83
8653;BME280;4364;52.426;9.424;2023-05-25T06:54:22;102184.19;;;10.66;90.72
8653;BME280;4364;52.426;9.424;2023-05-25T06:56:50;102178.38;;;10.74;89.65
8653;BME280;4364;52.426;9.424;2023-05-25T06:59:16;102194.06;;;10.84;88.94
8653;BME280;4364;52.426;9.424;2023-05-25T07:01:46;102194.91;;;10.85;87.91
8653;BME280;4364;52.426;9.424;2023-05-25T07:04:13;102192.66;;;10.82;88.42
8653;BME280;4364;52.426;9.424;2023-05-25T07:06:39;102196.59;;;11.03;88.43
8653;BME280;4364;52.426;9.424;2023-05-25T07:09:06;102198.78;;;11.18;86.00
8653;BME280;4364;52.426;9.424;2023-05-25T07:11:32;102204.78;;;11.03;86.49
8653;BME280;4364;52.426;9.424;2023-05-25T07:13:59;102200.97;;;11.04;87.31
8653;BME280;4364;52.426;9.424;2023-05-25T07:16:25;102197.03;;;11.11;86.49
8653;BME280;4364;52.426;9.424;2023-05-25T07:18:52;102206.75;;;11.07;87.62
8653;BME280;4364;52.426;9.424;2023-05-25T07:21:19;102215.47;;;11.21;86.87
8653;BME280;4364;52.426;9.424;2023-05-25T07:23:45;102211.66;;;11.22;85.44
8653;BME280;4364;52.426;9.424;2023-05-25T07:26:12;102210.75;;;11.17;86.54
8653;BME280;4364;52.426;9.424;2023-05-25T07:28:39;102210.50;;;11.18;86.36
8653;BME280;4364;52.426;9.424;2023-05-25T07:31:05;102212.97;;;11.20;86.13
8653;BME280;4364;52.426;9.424;2023-05-25T07:33:32;102209.25;;;11.26;86.13
8653;BME280;4364;52.426;9.424;2023-05-25T07:35:58;102201.84;;;11.21;85.97
8653;BME280;4364;52.426;9.424;2023-05-25T07:38:25;102208.78;;;11.29;85.86
8653;BME280;4364;52.426;9.424;2023-05-25T07:40:51;102205.94;;;11.07;86.72
8653;BME280;4364;52.426;9.424;2023-05-25T07:43:20;102201.91;;;11.09;87.47
8653;BME280;4364;52.426;9.424;2023-05-25T07:45:46;102203.38;;;11.17;86.98
8653;BME280;4364;52.426;9.424;2023-05-25T07:48:13;102209.94;;;11.33;85.28
8653;BME280;4364;52.426;9.424;2023-05-25T07:50:39;102218.06;;;11.45;85.84
8653;BME280;4364;52.426;9.424;2023-05-25T07:53:06;102218.78;;;11.57;85.51
8653;BME280;4364;52.426;9.424;2023-05-25T07:55:33;102218.56;;;11.59;84.07
8653;BME280;4364;52.426;9.424;2023-05-25T07:57:59;102213.44;;;11.62;84.43
8653;BME280;4364;52.426;9.424;2023-05-25T08:00:26;102207.97;;;11.62;83.81
8653;BME280;4364;52.426;9.424;2023-05-25T08:02:54;102219.88;;;11.56;84.67
8653;BME280;4364;52.426;9.424;2023-05-25T08:05:21;102213.19;;;11.64;83.58
8653;BME280;4364;52.426;9.424;2023-05-25T08:07:48;102222.44;;;11.63;82.93
8653;BME280;4364;52.426;9.424;2023-05-25T08:10:14;102221.69;;;11.67;82.80
8653;BME280;4364;52.426;9.424;2023-05-25T08:12:41;102232.75;;;11.61;83.48
8653;BME280;4364;52.426;9.424;2023-05-25T08:15:15;102230.41;;;11.36;83.75
8653;BME280;4364;52.426;9.424;2023-05-25T08:17:42;102236.72;;;11.53;83.73
8653;BME280;4364;52.426;9.424;2023-05-25T08:20:09;102226.06;;;11.68;84.01
8653;BME280;4364;52.426;9.424;2023-05-25T08:22:36;102228.31;;;11.72;83.45
8653;BME280;4364;52.426;9.424;2023-05-25T08:25:03;102228.16;;;11.78;83.55
8653;BME280;4364;52.426;9.424;2023-05-25T08:27:30;102229.75;;;11.91;82.90
8653;BME280;4364;52.426;9.424;2023-05-25T08:30:01;102231.31;;;12.04;82.77
8653;BME280;4364;52.426;9.424;2023-05-25T08:32:27;102234.94;;;11.93;82.15
8653;BME280;4364;52.426;9.424;2023-05-25T08:34:54;102230.97;;;11.83;83.03
8653;BME280;4364;52.426;9.424;2023-05-25T08:37:20;102236.84;;;11.92;82.32
8653;BME280;4364;52.426;9.424;2023-05-25T08:39:47;102241.13;;;12.05;81.92
8653;BME280;4364;52.426;9.424;2023-05-25T08:42:14;102232.47;;;11.91;82.06
8653;BME280;4364;52.426;9.424;2023-05-25T08:44:41;102243.59;;;11.90;81.74
8653;BME280;4364;52.426;9.424;2023-05-25T08:47:09;102247.50;;;11.94;81.64
8653;BME280;4364;52.426;9.424;2023-05-25T08:49:38;102242.50;;;11.91;82.18
8653;BME280;4364;52.426;9.424;2023-05-25T08:52:12;102244.34;;;12.02;81.16
8653;BME280;4364;52.426;9.424;2023-05-25T08:54:42;102252.38;;;11.92;81.92
8653;BME280;4364;52.426;9.424;2023-05-25T08:57:19;102243.38;;;11.91;82.79
8653;BME280;4364;52.426;9.424;2023-05-25T08:59:52;102252.47;;;11.97;82.73
8653;BME280;4364;52.426;9.424;2023-05-25T09:05:39;102247.09;;;12.02;83.16
8653;BME280;4364;52.426;9.424;2023-05-25T09:08:06;102249.94;;;12.29;81.96
8653;BME280;4364;52.426;9.424;2023-05-25T09:10:34;102248.28;;;12.45;79.56
8653;BME280;4364;52.426;9.424;2023-05-25T09:13:02;102248.97;;;12.57;79.23
8653;BME280;4364;52.426;9.424;2023-05-25T09:15:47;102247.34;;;12.78;77.53
8653;BME280;4364;52.426;9.424;2023-05-25T09:18:14;102247.81;;;12.97;77.71
8653;BME280;4364;52.426;9.424;2023-05-25T09:20:41;102248.19;;;13.06;76.37
8653;BME280;4364;52.426;9.424;2023-05-25T09:23:12;102245.22;;;13.08;75.38
8653;BME280;4364;52.426;9.424;2023-05-25T09:25:39;102251.13;;;13.22;74.93
8653;BME280;4364;52.426;9.424;2023-05-25T09:28:07;102251.66;;;13.46;74.38
8653;BME280;4364;52.426;9.424;2023-05-25T09:30:52;102249.31;;;13.60;72.79
8653;BME280;4364;52.426;9.424;2023-05-25T09:33:19;102250.94;;;13.56;72.38
8653;BME280;4364;52.426;9.424;2023-05-25T09:35:46;102255.19;;;13.74;71.63
8653;BME280;4364;52.426;9.424;2023-05-25T09:38:16;102252.56;;;13.89;71.99
8653;BME280;4364;52.426;9.424;2023-05-25T09:40:43;102267.34;;;13.93;72.06
8653;BME280;4364;52.426;9.424;2023-05-25T09:43:12;102268.22;;;13.94;70.85
8653;BME280;4364;52.426;9.424;2023-05-25T09:45:47;102269.03;;;13.94;70.87
8653;BME280;4364;52.426;9.424;2023-05-25T09:48:14;102268.13;;;13.83;71.40
8653;BME280;4364;52.426;9.424;2023-05-25T09:50:41;102267.13;;;14.00;71.16
8653;BME280;4364;52.426;9.424;2023-05-25T09:53:08;102271.91;;;14.15;70.54
8653;BME280;4364;52.426;9.424;2023-05-25T09:55:36;102270.19;;;14.03;68.95
8653;BME280;4364;52.426;9.424;2023-05-25T09:58:21;102276.66;;;13.92;70.22
8653;BME280;4364;52.426;9.424;2023-05-25T10:00:52;102273.69;;;13.94;70.51
8653;BME280;4364;52.426;9.424;2023-05-25T10:03:20;102280.41;;;13.81;70.17
8653;BME280;4364;52.426;9.424;2023-05-25T10:05:47;102277.75;;;13.59;70.64
8653;BME280;4364;52.426;9.424;2023-05-25T10:08:16;102278.25;;;13.56;71.08
8653;BME280;4364;52.426;9.424;2023-05-25T10:10:48;102285.84;;;13.48;72.40
8653;BME280;4364;52.426;9.424;2023-05-25T10:13:23;102285.00;;;13.48;72.55
8653;BME280;4364;52.426;9.424;2023-05-25T10:15:52;102288.31;;;13.50;73.22
8653;BME280;4364;52.426;9.424;2023-05-25T10:18:25;102291.00;;;13.45;72.87
8653;BME280;4364;52.426;9.424;2023-05-25T10:21:00;102292.69;;;13.29;72.98
8653;BME280;4364;52.426;9.424;2023-05-25T10:23:36;102287.22;;;13.51;71.84
8653;BME280;4364;52.426;9.424;2023-05-25T10:26:07;102282.19;;;13.65;70.49
8653;BME280;4364;52.426;9.424;2023-05-25T10:28:36;102285.88;;;13.81;70.12
8653;BME280;4364;52.426;9.424;2023-05-25T10:31:02;102290.94;;;13.99;69.87
8653;BME280;4364;52.426;9.424;2023-05-25T10:33:31;102283.50;;;13.95;69.53
8653;BME280;4364;52.426;9.424;2023-05-25T10:35:58;102286.59;;;14.03;69.51
8653;BME280;4364;52.426;9.424;2023-05-25T10:38:38;102283.91;;;14.08;69.68
8653;BME280;4364;52.426;9.424;2023-05-25T10:41:08;102286.97;;;14.17;69.99
8653;BME280;4364;52.426;9.424;2023-05-25T10:43:35;102286.22;;;14.27;68.90
8653;BME280;4364;52.426;9.424;2023-05-25T10:46:04;102288.50;;;14.03;68.96
8653;BME280;4364;52.426;9.424;2023-05-25T10:48:35;102283.25;;;13.96;68.73
8653;BME280;4364;52.426;9.424;2023-05-25T10:51:03;102284.25;;;14.17;68.36
8653;BME280;4364;52.426;9.424;2023-05-25T10:53:29;102278.59;;;13.92;69.31
8653;BME280;4364;52.426;9.424;2023-05-25T10:56:01;102282.00;;;14.09;69.13
8653;BME280;4364;52.426;9.424;2023-05-25T10:58:28;102284.41;;;14.00;69.09
8653;BME280;4364;52.426;9.424;2023-05-25T11:06:14;102283.31;;;14.06;67.94
8653;BME280;4364;52.426;9.424;2023-05-25T11:08:53;102292.16;;;14.14;67.19
8653;BME280;4364;52.426;9.424;2023-05-25T11:11:21;102289.41;;;14.14;67.18
8653;BME280;4364;52.426;9.424;2023-05-25T11:13:49;102286.28;;;14.37;66.61
8653;BME280;4364;52.426;9.424;2023-05-25T11:16:20;102283.19;;;14.66;66.03
8653;BME280;4364;52.426;9.424;2023-05-25T11:23:53;102282.34;;;14.60;65.20
8653;BME280;4364;52.426;9.424;2023-05-25T11:26:21;102277.69;;;14.61;64.89
8653;BME280;4364;52.426;9.424;2023-05-25T11:28:49;102277.63;;;14.56;65.08
8653;BME280;4364;52.426;9.424;2023-05-25T11:31:26;102280.09;;;14.52;64.64
8653;BME280;4364;52.426;9.424;2023-05-25T11:33:59;102277.31;;;14.47;65.50
8653;BME280;4364;52.426;9.424;2023-05-25T11:36:27;102276.81;;;14.55;64.23
8653;BME280;4364;52.426;9.424;2023-05-25T11:39:03;102272.88;;;14.84;64.07
8653;BME280;4364;52.426;9.424;2023-05-25T11:42:00;102262.56;;;15.06;62.92
8653;BME280;4364;52.426;9.424;2023-05-25T11:44:29;102256.50;;;14.99;62.75
8653;BME280;4364;52.426;9.424;2023-05-25T11:47:00;102263.59;;;14.95;62.20
8653;BME280;4364;52.426;9.424;2023-05-25T11:49:27;102256.53;;;15.14;61.59
8653;BME280;4364;52.426;9.424;2023-05-25T11:51:55;102256.59;;;15.30;61.53
8653;BME280;4364;52.426;9.424;2023-05-25T11:54:26;102250.31;;;15.55;61.46
8653;BME280;4364;52.426;9.424;2023-05-25T11:56:54;102249.25;;;15.77;59.99
8653;BME280;4364;52.426;9.424;2023-05-25T11:59:24;102245.09;;;16.15;59.12
8653;BME280;4364;52.426;9.424;2023-05-25T12:02:02;102240.84;;;16.74;58.11
8653;BME280;4364;52.426;9.424;2023-05-25T12:04:30;102231.13;;;16.97;57.45
8653;BME280;4364;52.426;9.424;2023-05-25T12:07:05;102233.78;;;17.13;55.09
8653;BME280;4364;52.426;9.424;2023-05-25T12:09:33;102236.00;;;17.06;52.93
8653;BME280;4364;52.426;9.424;2023-05-25T12:12:04;102226.44;;;17.03;54.19
8653;BME280;4364;52.426;9.424;2023-05-25T12:14:31;102230.41;;;16.71;55.66
8653;BME280;4364;52.426;9.424;2023-05-25T12:17:01;102230.72;;;16.64;56.21
8653;BME280;4364;52.426;9.424;2023-05-25T12:19:28;102229.59;;;16.60;55.33
8653;BME280;4364;52.426;9.424;2023-05-25T12:21:54;102232.38;;;16.50;56.06
8653;BME280;4364;52.426;9.424;2023-05-25T12:24:22;102227.47;;;16.47;55.23
8653;BME280;4364;52.426;9.424;2023-05-25T12:26:49;102227.97;;;16.64;54.96
8653;BME280;4364;52.426;9.424;2023-05-25T12:29:16;102231.25;;;16.61;55.62
8653;BME280;4364;52.426;9.424;2023-05-25T12:31:43;102224.97;;;16.56;55.39
8653;BME280;4364;52.426;9.424;2023-05-25T12:34:15;102216.19;;;16.48;55.09
8653;BME280;4364;52.426;9.424;2023-05-25T12:39:12;102209.00;;;16.63;56.59
8653;BME280;4364;52.426;9.424;2023-05-25T12:41:46;102209.56;;;17.20;54.03
8653;BME280;4364;52.426;9.424;2023-05-25T12:46:43;102206.63;;;17.06;54.09
8653;BME280;4364;52.426;9.424;2023-05-25T12:51:52;102208.78;;;16.54;55.59
8653;BME280;4364;52.426;9.424;2023-05-25T12:54:38;102208.84;;;16.34;57.17
8653;BME280;4364;52.426;9.424;2023-05-25T12:57:13;102198.94;;;16.43;56.42
8653;BME280;4364;52.426;9.424;2023-05-25T12:59:44;102204.91;;;16.55;55.57
8653;BME280;4364;52.426;9.424;2023-05-25T13:02:12;102206.84;;;16.55;55.32
8653;BME280;4364;52.426;9.424;2023-05-25T13:04:40;102209.09;;;16.32;55.09
8653;BME280;4364;52.426;9.424;2023-05-25T13:07:07;102215.97;;;16.40;56.16
8653;BME280;4364;52.426;9.424;2023-05-25T13:09:35;102210.84;;;16.88;55.20
8653;BME280;4364;52.426;9.424;2023-05-25T13:12:03;102207.84;;;16.84;53.23
8653;BME280;4364;52.426;9.424;2023-05-25T13:14:29;102215.00;;;16.75;53.47
8653;BME280;4364;52.426;9.424;2023-05-25T13:16:56;102198.94;;;17.03;52.69
8653;BME280;4364;52.426;9.424;2023-05-25T13:19:24;102214.94;;;17.35;52.54
8653;BME280;4364;52.426;9.424;2023-05-25T13:21:52;102206.59;;;17.51;51.67
8653;BME280;4364;52.426;9.424;2023-05-25T13:24:18;102198.91;;;17.48;49.74
8653;BME280;4364;52.426;9.424;2023-05-25T13:26:45;102205.84;;;17.40;50.79
8653;BME280;4364;52.426;9.424;2023-05-25T13:29:16;102203.84;;;17.46;49.41
8653;BME280;4364;52.426;9.424;2023-05-25T13:31:42;102203.03;;;17.45;50.41
8653;BME280;4364;52.426;9.424;2023-05-25T13:34:09;102196.22;;;17.72;49.89
8653;BME280;4364;52.426;9.424;2023-05-25T13:36:36;102198.16;;;17.71;49.47
8653;BME280;4364;52.426;9.424;2023-05-25T13:39:02;102195.56;;;18.14;49.18
8653;BME280;4364;52.426;9.424;2023-05-25T13:41:30;102193.59;;;18.44;48.16
8653;BME280;4364;52.426;9.424;2023-05-25T13:43:57;102197.41;;;18.67;47.02
8653;BME280;4364;52.426;9.424;2023-05-25T13:46:23;102190.84;;;18.39;47.89